Tokyo (Haneda) International, Japan

1:01 AM JST on June 21, 2018 (GMT +0900)
Tokyo (Haneda) International | | Change Station

Elev 26 ft 35.55 °N, 139.78 °E | Updated 31 minutes ago

Light Rain Showers
Light Showers Rain
68 °F
Feels Like 68 °F
N
10
Wind Variable Wind from NNE

Today
High -- | Low -- °F
--% Chance of Precip.
Yesterday
High -- | Low -- °F
Precip. -- in
Pressure 29.53 in
Visibility 5.6 miles
Clouds Few 300 ft
Scattered Clouds 400 ft
Mostly Cloudy 500 ft
Dew Point 68 °F
Humidity 100%
Rainfall 0.00 in
Snow Depth Not available.
4:25 AM 6:59 PM
First Quarter, 52% visible
METAR RJTT 201530Z 02009KT 9000 -SHRA FEW003 SCT004 BKN005 20/20 Q1000 TEMPO 3000 SHRA BR RMK 1ST003 3ST004 6ST005 A2956
Pressure 29.53 in
Visibility 5.6 miles
Clouds Few 300 ft
Scattered Clouds 400 ft
Mostly Cloudy 500 ft
Dew Point 68 °F
Humidity 100%
Rainfall 0.00 in
Snow Depth Not available.
4:25 AM 6:59 PM
First Quarter, 52% visible
METAR RJTT 201530Z 02009KT 9000 -SHRA FEW003 SCT004 BKN005 20/20 Q1000 TEMPO 3000 SHRA BR RMK 1ST003 3ST004 6ST005 A2956

Get Severe Weather Alerts

Thanks for signing up!

Be on the lookout for a verification email in your inbox.

You'll start receiving the daily forecast at 6 AM.

×

10-Day Weather Forecast

No radar image for this location.
×

Almanac

Astronomy

Jun. 21, 2018 Rise Set
Actual Time
Civil Twilight
Nautical Twilight
Astronomical Twilight
Moon
Length of Visible Light
Length of Day
Tomorrow will be .
, % of the Moon is Illuminated

Today's Extremes

Country Highs Country Lows

Community

WunderPhotos

Category 6

Welcome to Category 6. This is the collective home for Weather Underground's featured writeups by Dr. Jeff Masters (right), Bob Henson (left), Chris Burt, and other regular contributors.

Nearby

Air Quality

  Air Quality AQ Index Pollutant
Not available.

Snow Depth

Station Depth Elevation

Earthquake Activity

City Distance Mag. Time & Date
Minimum magnitude displayed is 2.5.

Coastal Water Temperatures

Place Temperature

Stations

Nearby Weather Stations

Station Location Temp. Windchill Dew Point Humidity Wind Precip. Elev Updated Type